sensor_id;sensor_type;location;lat;lon;timestamp;pressure;altitude;pressure_sealevel;temperature;humidity
49030;BME280;43337;52.070;4.508;2022-12-17T00:00:28;102408.53;;;-3.76;96.19
49030;BME280;43337;52.070;4.508;2022-12-17T00:03:12;102406.88;;;-3.74;96.52
49030;BME280;43337;52.070;4.508;2022-12-17T00:05:58;102392.56;;;-3.88;96.76
49030;BME280;43337;52.070;4.508;2022-12-17T00:08:45;102386.16;;;-3.98;96.44
49030;BME280;43337;52.070;4.508;2022-12-17T00:11:29;102331.06;;;-4.24;96.77
49030;BME280;43337;52.070;4.508;2022-12-17T00:14:12;102412.66;;;-3.80;97.21
49030;BME280;43337;52.070;4.508;2022-12-17T00:16:59;102424.69;;;-3.79;96.76
49030;BME280;43337;52.070;4.508;2022-12-17T00:19:45;102386.91;;;-4.01;96.86
49030;BME280;43337;52.070;4.508;2022-12-17T00:22:29;102374.69;;;-4.06;96.42
49030;BME280;43337;52.070;4.508;2022-12-17T00:25:16;102359.75;;;-4.15;97.33
49030;BME280;43337;52.070;4.508;2022-12-17T00:28:00;102348.22;;;-4.23;97.26
49030;BME280;43337;52.070;4.508;2022-12-17T00:30:55;102406.00;;;-3.96;97.89
49030;BME280;43337;52.070;4.508;2022-12-17T00:34:00;102419.09;;;-3.89;97.52
49030;BME280;43337;52.070;4.508;2022-12-17T00:36:44;102417.31;;;-3.92;97.63
49030;BME280;43337;52.070;4.508;2022-12-17T00:39:28;102385.50;;;-4.13;97.82
49030;BME280;43337;52.070;4.508;2022-12-17T00:42:12;102432.22;;;-3.83;97.90
49030;BME280;43337;52.070;4.508;2022-12-17T00:44:55;102414.22;;;-3.83;97.90
49030;BME280;43337;52.070;4.508;2022-12-17T00:47:39;102437.00;;;-3.72;97.74
49030;BME280;43337;52.070;4.508;2022-12-17T00:50:23;102421.38;;;-3.76;97.92
49030;BME280;43337;52.070;4.508;2022-12-17T00:53:07;102421.38;;;-3.76;97.76
49030;BME280;43337;52.070;4.508;2022-12-17T00:55:51;102417.81;;;-3.80;97.20
49030;BME280;43337;52.070;4.508;2022-12-17T00:58:35;102404.81;;;-3.83;97.83
49030;BME280;43337;52.070;4.508;2022-12-17T01:01:19;102401.91;;;-3.90;97.82
49030;BME280;43337;52.070;4.508;2022-12-17T01:04:03;102424.38;;;-3.86;97.87
49030;BME280;43337;52.070;4.508;2022-12-17T01:06:47;102405.03;;;-3.98;97.54
49030;BME280;43337;52.070;4.508;2022-12-17T01:09:31;102413.63;;;-3.97;97.96
49030;BME280;43337;52.070;4.508;2022-12-17T01:12:15;102427.50;;;-3.94;97.94
49030;BME280;43337;52.070;4.508;2022-12-17T01:14:59;102426.50;;;-3.97;98.21
49030;BME280;43337;52.070;4.508;2022-12-17T01:17:43;102436.97;;;-3.93;98.41
49030;BME280;43337;52.070;4.508;2022-12-17T01:20:27;102420.47;;;-3.98;98.19
49030;BME280;43337;52.070;4.508;2022-12-17T01:23:11;102424.75;;;-3.98;98.98
49030;BME280;43337;52.070;4.508;2022-12-17T01:25:56;102430.06;;;-3.94;98.95
49030;BME280;43337;52.070;4.508;2022-12-17T01:28:41;102418.59;;;-4.02;98.96
49030;BME280;43337;52.070;4.508;2022-12-17T01:31:25;102435.31;;;-3.92;98.88
49030;BME280;43337;52.070;4.508;2022-12-17T01:34:10;102420.53;;;-3.96;98.95
49030;BME280;43337;52.070;4.508;2022-12-17T01:36:53;102441.31;;;-3.91;99.19
49030;BME280;43337;52.070;4.508;2022-12-17T01:39:48;102429.16;;;-3.96;98.94
49030;BME280;43337;52.070;4.508;2022-12-17T01:42:40;102443.94;;;-3.90;98.82
49030;BME280;43337;52.070;4.508;2022-12-17T01:45:27;102448.47;;;-3.84;99.30
49030;BME280;43337;52.070;4.508;2022-12-17T01:48:16;102424.78;;;-3.97;99.44
49030;BME280;43337;52.070;4.508;2022-12-17T01:51:02;102446.84;;;-3.82;99.12
49030;BME280;43337;52.070;4.508;2022-12-17T01:53:49;102428.19;;;-3.98;99.26
49030;BME280;43337;52.070;4.508;2022-12-17T01:56:39;102452.94;;;-3.80;99.58
49030;BME280;43337;52.070;4.508;2022-12-17T02:02:26;102459.03;;;-3.78;100.00
49030;BME280;43337;52.070;4.508;2022-12-17T02:05:10;102462.47;;;-3.78;99.74
49030;BME280;43337;52.070;4.508;2022-12-17T02:10:59;102470.38;;;-3.73;99.64
49030;BME280;43337;52.070;4.508;2022-12-17T02:14:19;102462.66;;;-3.73;99.82
49030;BME280;43337;52.070;4.508;2022-12-17T02:17:01;102470.47;;;-3.72;100.00
49030;BME280;43337;52.070;4.508;2022-12-17T02:19:53;102469.66;;;-3.71;100.00
49030;BME280;43337;52.070;4.508;2022-12-17T02:26:01;102468.81;;;-3.70;100.00
49030;BME280;43337;52.070;4.508;2022-12-17T02:28:48;102467.13;;;-3.69;99.85
49030;BME280;43337;52.070;4.508;2022-12-17T02:31:51;102457.41;;;-3.76;99.98
49030;BME280;43337;52.070;4.508;2022-12-17T02:34:44;102469.78;;;-3.67;100.00
49030;BME280;43337;52.070;4.508;2022-12-17T02:37:28;102473.91;;;-3.71;100.00
49030;BME280;43337;52.070;4.508;2022-12-17T02:40:12;102466.06;;;-3.74;100.00
49030;BME280;43337;52.070;4.508;2022-12-17T02:42:56;102473.03;;;-3.72;100.00
49030;BME280;43337;52.070;4.508;2022-12-17T02:45:41;102475.63;;;-3.72;99.93
49030;BME280;43337;52.070;4.508;2022-12-17T02:48:26;102485.09;;;-3.71;100.00
49030;BME280;43337;52.070;4.508;2022-12-17T02:51:10;102478.94;;;-3.74;100.00
49030;BME280;43337;52.070;4.508;2022-12-17T02:53:54;102480.81;;;-3.70;99.96
49030;BME280;43337;52.070;4.508;2022-12-17T02:56:38;102494.63;;;-3.68;100.00
49030;BME280;43337;52.070;4.508;2022-12-17T02:59:22;102479.59;;;-3.78;100.00
49030;BME280;43337;52.070;4.508;2022-12-17T03:02:06;102466.69;;;-3.80;100.00
49030;BME280;43337;52.070;4.508;2022-12-17T03:04:51;102495.75;;;-3.61;100.00
49030;BME280;43337;52.070;4.508;2022-12-17T03:07:35;102494.09;;;-3.61;100.00
49030;BME280;43337;52.070;4.508;2022-12-17T03:10:19;102488.03;;;-3.61;100.00
49030;BME280;43337;52.070;4.508;2022-12-17T03:13:03;102488.03;;;-3.61;100.00
49030;BME280;43337;52.070;4.508;2022-12-17T03:15:47;102494.41;;;-3.53;100.00
49030;BME280;43337;52.070;4.508;2022-12-17T03:18:31;102494.47;;;-3.52;100.00
49030;BME280;43337;52.070;4.508;2022-12-17T03:21:15;102496.28;;;-3.49;100.00
49030;BME280;43337;52.070;4.508;2022-12-17T03:23:59;102498.03;;;-3.48;100.00
49030;BME280;43337;52.070;4.508;2022-12-17T03:26:43;102503.25;;;-3.47;100.00
49030;BME280;43337;52.070;4.508;2022-12-17T03:29:26;102490.38;;;-3.47;100.00
49030;BME280;43337;52.070;4.508;2022-12-17T03:32:11;102513.06;;;-3.38;100.00
49030;BME280;43337;52.070;4.508;2022-12-17T03:34:54;102512.25;;;-3.37;100.00
49030;BME280;43337;52.070;4.508;2022-12-17T03:37:38;102490.38;;;-3.47;100.00
49030;BME280;43337;52.070;4.508;2022-12-17T03:40:22;102505.56;;;-3.32;100.00
49030;BME280;43337;52.070;4.508;2022-12-17T03:43:10;102518.44;;;-3.32;100.00
49030;BME280;43337;52.070;4.508;2022-12-17T03:45:55;102513.31;;;-3.32;100.00
49030;BME280;43337;52.070;4.508;2022-12-17T03:48:39;102509.72;;;-3.35;100.00
49030;BME280;43337;52.070;4.508;2022-12-17T03:51:23;102511.59;;;-3.31;100.00
49030;BME280;43337;52.070;4.508;2022-12-17T03:54:06;102488.94;;;-3.40;100.00
49030;BME280;43337;52.070;4.508;2022-12-17T03:56:50;102503.97;;;-3.30;100.00
49030;BME280;43337;52.070;4.508;2022-12-17T03:59:34;102511.88;;;-3.25;100.00
49030;BME280;43337;52.070;4.508;2022-12-17T04:02:18;102513.00;;;-3.18;100.00
49030;BME280;43337;52.070;4.508;2022-12-17T04:05:12;102482.41;;;-3.32;100.00
49030;BME280;43337;52.070;4.508;2022-12-17T04:07:56;102506.91;;;-3.21;100.00
49030;BME280;43337;52.070;4.508;2022-12-17T04:10:39;102479.00;;;-3.31;100.00
49030;BME280;43337;52.070;4.508;2022-12-17T04:13:23;102504.50;;;-3.16;100.00
49030;BME280;43337;52.070;4.508;2022-12-17T04:16:08;102507.25;;;-3.11;100.00
49030;BME280;43337;52.070;4.508;2022-12-17T04:18:52;102499.34;;;-3.16;100.00
49030;BME280;43337;52.070;4.508;2022-12-17T04:21:36;102495.06;;;-3.15;100.00
49030;BME280;43337;52.070;4.508;2022-12-17T04:24:20;102502.00;;;-3.14;100.00
49030;BME280;43337;52.070;4.508;2022-12-17T04:27:03;102492.50;;;-3.15;100.00
49030;BME280;43337;52.070;4.508;2022-12-17T04:29:47;102502.75;;;-3.17;100.00
49030;BME280;43337;52.070;4.508;2022-12-17T04:32:31;102499.34;;;-3.16;100.00
49030;BME280;43337;52.070;4.508;2022-12-17T04:35:15;102508.03;;;-3.14;100.00
49030;BME280;43337;52.070;4.508;2022-12-17T04:37:59;102506.84;;;-3.22;100.00
49030;BME280;43337;52.070;4.508;2022-12-17T04:40:43;102508.88;;;-3.15;100.00
49030;BME280;43337;52.070;4.508;2022-12-17T04:43:29;102495.72;;;-3.21;100.00
49030;BME280;43337;52.070;4.508;2022-12-17T04:46:13;102511.22;;;-3.20;100.00
49030;BME280;43337;52.070;4.508;2022-12-17T04:48:57;102513.00;;;-3.18;100.00
49030;BME280;43337;52.070;4.508;2022-12-17T04:51:41;102516.31;;;-3.21;100.00
49030;BME280;43337;52.070;4.508;2022-12-17T04:54:36;102518.63;;;-3.27;100.00
49030;BME280;43337;52.070;4.508;2022-12-17T04:57:20;102512.38;;;-3.34;100.00
49030;BME280;43337;52.070;4.508;2022-12-17T05:00:04;102499.28;;;-3.38;100.00
49030;BME280;43337;52.070;4.508;2022-12-17T05:02:48;102507.16;;;-3.35;100.00
49030;BME280;43337;52.070;4.508;2022-12-17T05:05:32;102524.44;;;-3.33;100.00
49030;BME280;43337;52.070;4.508;2022-12-17T05:08:16;102511.09;;;-3.44;100.00
49030;BME280;43337;52.070;4.508;2022-12-17T05:11:02;102515.38;;;-3.44;100.00
49030;BME280;43337;52.070;4.508;2022-12-17T05:13:46;102530.19;;;-3.38;100.00
49030;BME280;43337;52.070;4.508;2022-12-17T05:16:30;102515.50;;;-3.41;100.00
49030;BME280;43337;52.070;4.508;2022-12-17T05:19:14;102508.34;;;-3.48;100.00
49030;BME280;43337;52.070;4.508;2022-12-17T05:21:58;102527.94;;;-3.31;100.00
49030;BME280;43337;52.070;4.508;2022-12-17T05:24:42;102540.06;;;-3.28;100.00
49030;BME280;43337;52.070;4.508;2022-12-17T05:27:26;102517.56;;;-3.32;100.00
49030;BME280;43337;52.070;4.508;2022-12-17T05:30:10;102530.91;;;-3.22;100.00
49030;BME280;43337;52.070;4.508;2022-12-17T05:33:02;102519.66;;;-3.24;100.00
49030;BME280;43337;52.070;4.508;2022-12-17T05:35:46;102508.97;;;-3.33;100.00
49030;BME280;43337;52.070;4.508;2022-12-17T05:38:30;102524.19;;;-3.18;100.00
49030;BME280;43337;52.070;4.508;2022-12-17T05:41:14;102514.56;;;-3.22;100.00
49030;BME280;43337;52.070;4.508;2022-12-17T05:43:58;102533.94;;;-3.11;100.00
49030;BME280;43337;52.070;4.508;2022-12-17T05:46:41;102538.16;;;-3.11;100.00
49030;BME280;43337;52.070;4.508;2022-12-17T05:49:25;102540.97;;;-3.07;100.00
49030;BME280;43337;52.070;4.508;2022-12-17T05:52:09;102555.72;;;-3.03;100.00
49030;BME280;43337;52.070;4.508;2022-12-17T05:54:53;102553.88;;;-3.05;100.00
49030;BME280;43337;52.070;4.508;2022-12-17T05:57:37;102561.63;;;-3.05;100.00
49030;BME280;43337;52.070;4.508;2022-12-17T06:00:21;102571.22;;;-3.01;100.00
49030;BME280;43337;52.070;4.508;2022-12-17T06:03:05;102564.38;;;-3.01;100.00
49030;BME280;43337;52.070;4.508;2022-12-17T06:05:54;102564.38;;;-3.01;100.00
49030;BME280;43337;52.070;4.508;2022-12-17T06:08:40;102551.44;;;-3.02;100.00
49030;BME280;43337;52.070;4.508;2022-12-17T06:11:44;102560.19;;;-2.99;100.00
49030;BME280;43337;52.070;4.508;2022-12-17T06:14:28;102566.47;;;-2.92;100.00
49030;BME280;43337;52.070;4.508;2022-12-17T06:17:12;102551.09;;;-2.89;100.00
49030;BME280;43337;52.070;4.508;2022-12-17T06:19:56;102551.97;;;-2.88;100.00
49030;BME280;43337;52.070;4.508;2022-12-17T06:22:39;102559.97;;;-2.82;100.00
49030;BME280;43337;52.070;4.508;2022-12-17T06:25:23;102560.72;;;-2.85;100.00
49030;BME280;43337;52.070;4.508;2022-12-17T06:28:07;102560.81;;;-2.83;100.00
49030;BME280;43337;52.070;4.508;2022-12-17T06:30:52;102554.81;;;-2.82;100.00
49030;BME280;43337;52.070;4.508;2022-12-17T06:33:37;102558.44;;;-2.77;100.00
49030;BME280;43337;52.070;4.508;2022-12-17T06:36:21;102562.72;;;-2.78;100.00
49030;BME280;43337;52.070;4.508;2022-12-17T06:39:05;102566.63;;;-2.66;100.00
49030;BME280;43337;52.070;4.508;2022-12-17T06:41:48;102557.13;;;-2.67;100.00
49030;BME280;43337;52.070;4.508;2022-12-17T06:44:32;102568.31;;;-2.67;100.00
49030;BME280;43337;52.070;4.508;2022-12-17T06:47:17;102577.75;;;-2.67;100.00
49030;BME280;43337;52.070;4.508;2022-12-17T06:50:01;102574.22;;;-2.70;100.00
49030;BME280;43337;52.070;4.508;2022-12-17T06:52:45;102552.28;;;-2.81;100.00
49030;BME280;43337;52.070;4.508;2022-12-17T06:55:29;102565.25;;;-2.79;100.00
49030;BME280;43337;52.070;4.508;2022-12-17T06:58:13;102552.81;;;-2.89;100.00
49030;BME280;43337;52.070;4.508;2022-12-17T07:00:56;102556.38;;;-2.86;100.00
49030;BME280;43337;52.070;4.508;2022-12-17T07:03:40;102556.16;;;-2.92;100.00
49030;BME280;43337;52.070;4.508;2022-12-17T07:06:24;102574.38;;;-2.87;100.00
49030;BME280;43337;52.070;4.508;2022-12-17T07:09:08;102574.06;;;-2.95;100.00
49030;BME280;43337;52.070;4.508;2022-12-17T07:11:52;102582.59;;;-2.96;100.00
49030;BME280;43337;52.070;4.508;2022-12-17T07:14:36;102582.59;;;-2.96;100.00
49030;BME280;43337;52.070;4.508;2022-12-17T07:17:20;102584.25;;;-2.98;100.00
49030;BME280;43337;52.070;4.508;2022-12-17T07:20:21;102588.25;;;-3.05;100.00
49030;BME280;43337;52.070;4.508;2022-12-17T07:23:04;102588.94;;;-3.09;100.00
49030;BME280;43337;52.070;4.508;2022-12-17T07:25:48;102599.25;;;-3.09;100.00
49030;BME280;43337;52.070;4.508;2022-12-17T07:28:32;102617.47;;;-3.04;100.00
49030;BME280;43337;52.070;4.508;2022-12-17T07:31:16;102609.38;;;-3.13;100.00
49030;BME280;43337;52.070;4.508;2022-12-17T07:34:00;102605.16;;;-3.11;100.00
49030;BME280;43337;52.070;4.508;2022-12-17T07:36:44;102574.97;;;-3.35;100.00
49030;BME280;43337;52.070;4.508;2022-12-17T07:39:28;102618.66;;;-3.17;100.00
49030;BME280;43337;52.070;4.508;2022-12-17T07:42:12;102612.50;;;-3.21;100.00
49030;BME280;43337;52.070;4.508;2022-12-17T07:44:56;102614.19;;;-3.21;100.00
49030;BME280;43337;52.070;4.508;2022-12-17T07:47:40;102627.22;;;-3.18;100.00
49030;BME280;43337;52.070;4.508;2022-12-17T07:50:24;102620.22;;;-3.21;100.00
49030;BME280;43337;52.070;4.508;2022-12-17T07:53:08;102629.09;;;-3.14;100.00
49030;BME280;43337;52.070;4.508;2022-12-17T07:55:52;102592.94;;;-3.36;100.00
49030;BME280;43337;52.070;4.508;2022-12-17T07:58:36;102612.44;;;-3.22;100.00
49030;BME280;43337;52.070;4.508;2022-12-17T08:01:20;102623.75;;;-3.18;100.00
49030;BME280;43337;52.070;4.508;2022-12-17T08:04:03;102640.16;;;-3.16;100.00
49030;BME280;43337;52.070;4.508;2022-12-17T08:06:49;102651.50;;;-3.11;100.00
49030;BME280;43337;52.070;4.508;2022-12-17T08:09:33;102640.22;;;-3.15;100.00
49030;BME280;43337;52.070;4.508;2022-12-17T08:12:17;102656.66;;;-3.11;100.00
49030;BME280;43337;52.070;4.508;2022-12-17T08:15:02;102635.81;;;-3.17;100.00
49030;BME280;43337;52.070;4.508;2022-12-17T08:17:46;102643.72;;;-3.13;100.00
49030;BME280;43337;52.070;4.508;2022-12-17T08:20:30;102618.06;;;-3.31;100.00
49030;BME280;43337;52.070;4.508;2022-12-17T08:23:14;102650.53;;;-3.15;100.00
49030;BME280;43337;52.070;4.508;2022-12-17T08:25:58;102619.75;;;-3.31;100.00
49030;BME280;43337;52.070;4.508;2022-12-17T08:28:41;102645.16;;;-3.20;100.00
49030;BME280;43337;52.070;4.508;2022-12-17T08:31:25;102637.50;;;-3.18;100.00
49030;BME280;43337;52.070;4.508;2022-12-17T08:34:09;102648.75;;;-3.16;100.00
49030;BME280;43337;52.070;4.508;2022-12-17T08:36:53;102632.97;;;-3.24;100.00
49030;BME280;43337;52.070;4.508;2022-12-17T08:39:37;102647.63;;;-3.23;100.00
49030;BME280;43337;52.070;4.508;2022-12-17T08:42:22;102642.53;;;-3.21;100.00
49030;BME280;43337;52.070;4.508;2022-12-17T08:45:06;102655.59;;;-3.16;100.00
49030;BME280;43337;52.070;4.508;2022-12-17T08:47:50;102644.81;;;-3.27;100.00
49030;BME280;43337;52.070;4.508;2022-12-17T08:50:34;102659.53;;;-3.25;100.00
49030;BME280;43337;52.070;4.508;2022-12-17T08:53:18;102668.16;;;-3.24;100.00
49030;BME280;43337;52.070;4.508;2022-12-17T08:56:02;102684.03;;;-3.15;100.00
49030;BME280;43337;52.070;4.508;2022-12-17T08:58:46;102690.09;;;-3.13;100.00
49030;BME280;43337;52.070;4.508;2022-12-17T09:01:30;102680.81;;;-3.09;100.00
49030;BME280;43337;52.070;4.508;2022-12-17T09:04:14;102692.19;;;-3.04;100.00
49030;BME280;43337;52.070;4.508;2022-12-17T09:06:58;102674.50;;;-3.16;100.00
49030;BME280;43337;52.070;4.508;2022-12-17T09:09:42;102702.78;;;-2.98;100.00
49030;BME280;43337;52.070;4.508;2022-12-17T09:12:25;102697.56;;;-3.00;100.00
49030;BME280;43337;52.070;4.508;2022-12-17T09:15:09;102696.75;;;-2.99;100.00
49030;BME280;43337;52.070;4.508;2022-12-17T09:17:53;102687.16;;;-3.01;100.00
49030;BME280;43337;52.070;4.508;2022-12-17T09:20:37;102686.34;;;-3.00;100.00
49030;BME280;43337;52.070;4.508;2022-12-17T09:23:21;102687.44;;;-2.95;100.00
49030;BME280;43337;52.070;4.508;2022-12-17T09:26:05;102683.91;;;-2.97;100.00
49030;BME280;43337;52.070;4.508;2022-12-17T09:28:49;102702.47;;;-2.85;100.00
49030;BME280;43337;52.070;4.508;2022-12-17T09:31:38;102707.75;;;-2.82;100.00
49030;BME280;43337;52.070;4.508;2022-12-17T09:34:22;102705.94;;;-2.84;100.00
49030;BME280;43337;52.070;4.508;2022-12-17T09:37:06;102710.09;;;-2.88;100.00
49030;BME280;43337;52.070;4.508;2022-12-17T09:39:50;102714.34;;;-2.88;100.00
49030;BME280;43337;52.070;4.508;2022-12-17T09:42:57;102747.84;;;-2.69;100.00
49030;BME280;43337;52.070;4.508;2022-12-17T09:45:59;102741.03;;;-2.67;100.00
49030;BME280;43337;52.070;4.508;2022-12-17T09:49:01;102735.84;;;-2.68;100.00
49030;BME280;43337;52.070;4.508;2022-12-17T09:51:46;102741.31;;;-2.61;100.00
49030;BME280;43337;52.070;4.508;2022-12-17T09:54:39;102738.78;;;-2.59;100.00
49030;BME280;43337;52.070;4.508;2022-12-17T09:57:28;102737.94;;;-2.58;100.00
49030;BME280;43337;52.070;4.508;2022-12-17T10:00:19;102729.09;;;-2.65;100.00
49030;BME280;43337;52.070;4.508;2022-12-17T10:03:09;102740.81;;;-2.52;100.00
49030;BME280;43337;52.070;4.508;2022-12-17T10:05:56;102737.22;;;-2.56;100.00
49030;BME280;43337;52.070;4.508;2022-12-17T10:08:40;102758.31;;;-2.45;100.00
49030;BME280;43337;52.070;4.508;2022-12-17T10:11:27;102739.47;;;-2.42;100.00
49030;BME280;43337;52.070;4.508;2022-12-17T10:16:59;102732.44;;;-2.47;100.00
49030;BME280;43337;52.070;4.508;2022-12-17T10:19:44;102743.19;;;-2.36;100.00
49030;BME280;43337;52.070;4.508;2022-12-17T10:22:41;102744.19;;;-2.32;100.00
49030;BME280;43337;52.070;4.508;2022-12-17T10:25:25;102742.38;;;-2.35;100.00
49030;BME280;43337;52.070;4.508;2022-12-17T10:28:15;102739.03;;;-2.32;100.00
49030;BME280;43337;52.070;4.508;2022-12-17T10:31:00;102756.66;;;-2.22;100.00
49030;BME280;43337;52.070;4.508;2022-12-17T10:33:45;102756.03;;;-2.16;100.00
49030;BME280;43337;52.070;4.508;2022-12-17T10:36:30;102745.66;;;-2.18;100.00
49030;BME280;43337;52.070;4.508;2022-12-17T10:39:20;102747.41;;;-2.17;100.00
49030;BME280;43337;52.070;4.508;2022-12-17T10:48:26;102755.31;;;-1.91;100.00
49030;BME280;43337;52.070;4.508;2022-12-17T10:51:18;102743.59;;;-1.83;100.00
49030;BME280;43337;52.070;4.508;2022-12-17T10:54:22;102742.13;;;-1.77;100.00
49030;BME280;43337;52.070;4.508;2022-12-17T11:00:20;102742.72;;;-1.61;100.00
49030;BME280;43337;52.070;4.508;2022-12-17T11:03:04;102734.38;;;-1.54;100.00
49030;BME280;43337;52.070;4.508;2022-12-17T11:05:54;102719.81;;;-1.52;100.00
49030;BME280;43337;52.070;4.508;2022-12-17T11:08:38;102733.31;;;-1.37;100.00
49030;BME280;43337;52.070;4.508;2022-12-17T11:11:23;102722.38;;;-1.30;100.00
49030;BME280;43337;52.070;4.508;2022-12-17T11:14:08;102712.91;;;-1.29;100.00
49030;BME280;43337;52.070;4.508;2022-12-17T11:16:59;102715.69;;;-1.23;100.00
49030;BME280;43337;52.070;4.508;2022-12-17T11:19:54;102715.22;;;-1.13;100.00
49030;BME280;43337;52.070;4.508;2022-12-17T11:22:41;102724.28;;;-1.00;100.00
49030;BME280;43337;52.070;4.508;2022-12-17T11:28:49;102720.44;;;-0.87;100.00
49030;BME280;43337;52.070;4.508;2022-12-17T11:37:37;102733.91;;;-0.72;99.87
49030;BME280;43337;52.070;4.508;2022-12-17T11:40:35;102732.34;;;-0.67;100.00
49030;BME280;43337;52.070;4.508;2022-12-17T11:49:36;102729.09;;;-0.61;100.00
49030;BME280;43337;52.070;4.508;2022-12-17T11:58:33;102704.66;;;-0.69;100.00
49030;BME280;43337;52.070;4.508;2022-12-17T12:01:45;102722.28;;;-0.58;99.96
49030;BME280;43337;52.070;4.508;2022-12-17T12:04:56;102720.66;;;-0.56;100.00
49030;BME280;43337;52.070;4.508;2022-12-17T12:07:55;102700.47;;;-0.66;100.00
49030;BME280;43337;52.070;4.508;2022-12-17T12:13:59;102740.84;;;-0.45;100.00
49030;BME280;43337;52.070;4.508;2022-12-17T12:26:32;102728.34;;;-0.32;99.60
49030;BME280;43337;52.070;4.508;2022-12-17T12:29:54;102723.31;;;-0.27;98.92
49030;BME280;43337;52.070;4.508;2022-12-17T12:35:52;102728.06;;;-0.14;99.78
49030;BME280;43337;52.070;4.508;2022-12-17T12:38:41;102732.53;;;-0.08;98.54
49030;BME280;43337;52.070;4.508;2022-12-17T12:41:57;102730.94;;;-0.05;99.14
49030;BME280;43337;52.070;4.508;2022-12-17T12:44:55;102712.69;;;-0.09;98.96
49030;BME280;43337;52.070;4.508;2022-12-17T12:53:36;102710.53;;;0.05;98.83
49030;BME280;43337;52.070;4.508;2022-12-17T12:56:30;102719.34;;;0.11;97.63
49030;BME280;43337;52.070;4.508;2022-12-17T12:59:27;102718.47;;;0.11;97.09
49030;BME280;43337;52.070;4.508;2022-12-17T13:02:17;102703.78;;;0.10;97.50
49030;BME280;43337;52.070;4.508;2022-12-17T13:05:31;102704.78;;;0.15;97.44
49030;BME280;43337;52.070;4.508;2022-12-17T13:10:34;102705.84;;;0.21;97.85
49030;BME280;43337;52.070;4.508;2022-12-17T13:13:25;102699.66;;;0.16;97.89
49030;BME280;43337;52.070;4.508;2022-12-17T13:15:56;102713.66;;;0.23;97.26
49030;BME280;43337;52.070;4.508;2022-12-17T13:18:31;102703.38;;;0.24;97.59
49030;BME280;43337;52.070;4.508;2022-12-17T13:21:05;102688.47;;;0.17;98.10
49030;BME280;43337;52.070;4.508;2022-12-17T13:23:46;102712.84;;;0.24;97.35
49030;BME280;43337;52.070;4.508;2022-12-17T13:29:18;102703.25;;;0.21;97.81
49030;BME280;43337;52.070;4.508;2022-12-17T13:32:01;102695.50;;;0.21;96.83
49030;BME280;43337;52.070;4.508;2022-12-17T13:34:49;102694.63;;;0.21;97.39
49030;BME280;43337;52.070;4.508;2022-12-17T13:37:41;102699.81;;;0.21;97.15
49030;BME280;43337;52.070;4.508;2022-12-17T13:42:45;102691.16;;;0.20;96.95
49030;BME280;43337;52.070;4.508;2022-12-17T13:45:16;102700.63;;;0.20;96.78
49030;BME280;43337;52.070;4.508;2022-12-17T13:47:42;102700.56;;;0.18;96.87
49030;BME280;43337;52.070;4.508;2022-12-17T13:50:23;102703.16;;;0.18;97.08
49030;BME280;43337;52.070;4.508;2022-12-17T13:52:49;102675.06;;;0.02;97.53
49030;BME280;43337;52.070;4.508;2022-12-17T13:55:25;102696.94;;;0.12;96.85
49030;BME280;43337;52.070;4.508;2022-12-17T13:57:53;102697.84;;;0.14;97.75
49030;BME280;43337;52.070;4.508;2022-12-17T14:02:44;102697.63;;;0.06;95.85
49030;BME280;43337;52.070;4.508;2022-12-17T14:05:29;102710.69;;;0.11;96.39
49030;BME280;43337;52.070;4.508;2022-12-17T14:07:59;102694.06;;;0.03;96.54
49030;BME280;43337;52.070;4.508;2022-12-17T14:10:26;102707.97;;;0.06;96.59
49030;BME280;43337;52.070;4.508;2022-12-17T14:13:06;102692.03;;;-0.08;96.68
49030;BME280;43337;52.070;4.508;2022-12-17T14:15:32;102707.00;;;0.03;96.99
49030;BME280;43337;52.070;4.508;2022-12-17T14:17:58;102699.88;;;-0.05;97.67
49030;BME280;43337;52.070;4.508;2022-12-17T14:20:28;102713.78;;;-0.01;97.20
49030;BME280;43337;52.070;4.508;2022-12-17T14:25:26;102708.28;;;-0.12;97.08
49030;BME280;43337;52.070;4.508;2022-12-17T14:28:00;102733.47;;;-0.08;96.73
49030;BME280;43337;52.070;4.508;2022-12-17T14:30:40;102738.53;;;-0.11;96.38
49030;BME280;43337;52.070;4.508;2022-12-17T14:33:36;102740.97;;;-0.15;96.25
49030;BME280;43337;52.070;4.508;2022-12-17T14:36:22;102735.56;;;-0.23;96.59
49030;BME280;43337;52.070;4.508;2022-12-17T14:38:56;102729.22;;;-0.31;97.02
49030;BME280;43337;52.070;4.508;2022-12-17T14:41:23;102732.59;;;-0.34;96.54
49030;BME280;43337;52.070;4.508;2022-12-17T14:44:24;102743.84;;;-0.33;97.28
49030;BME280;43337;52.070;4.508;2022-12-17T14:47:07;102737.66;;;-0.37;96.84
49030;BME280;43337;52.070;4.508;2022-12-17T14:49:37;102731.22;;;-0.50;96.19
49030;BME280;43337;52.070;4.508;2022-12-17T14:52:12;102745.16;;;-0.46;96.72
49030;BME280;43337;52.070;4.508;2022-12-17T14:54:44;102745.78;;;-0.52;97.00
49030;BME280;43337;52.070;4.508;2022-12-17T14:57:19;102755.16;;;-0.55;96.99
49030;BME280;43337;52.070;4.508;2022-12-17T14:59:45;102728.63;;;-0.75;97.57
49030;BME280;43337;52.070;4.508;2022-12-17T15:04:37;102742.38;;;-0.76;97.22
49030;BME280;43337;52.070;4.508;2022-12-17T15:07:04;102764.16;;;-0.69;97.02
49030;BME280;43337;52.070;4.508;2022-12-17T15:09:37;102758.66;;;-0.79;97.31
49030;BME280;43337;52.070;4.508;2022-12-17T15:12:03;102769.03;;;-0.77;96.82
49030;BME280;43337;52.070;4.508;2022-12-17T15:14:28;102761.03;;;-0.85;97.15
49030;BME280;43337;52.070;4.508;2022-12-17T15:16:54;102764.31;;;-0.89;97.11
49030;BME280;43337;52.070;4.508;2022-12-17T15:19:21;102755.50;;;-0.95;97.18
49030;BME280;43337;52.070;4.508;2022-12-17T15:21:46;102770.13;;;-0.96;97.13
49030;BME280;43337;52.070;4.508;2022-12-17T15:24:16;102754.00;;;-1.13;96.91
49030;BME280;43337;52.070;4.508;2022-12-17T15:26:42;102791.50;;;-1.00;96.85
49030;BME280;43337;52.070;4.508;2022-12-17T15:29:08;102792.16;;;-1.06;97.35
49030;BME280;43337;52.070;4.508;2022-12-17T15:31:33;102768.47;;;-1.18;96.72
49030;BME280;43337;52.070;4.508;2022-12-17T15:33:58;102784.00;;;-1.16;96.92